Sattler, Texas
Current Conditions -  °F | °C
As of 8:51 AM on Wednesday 22 Oct 2014 (Local Time) from KBAZ Reporting Station
Clear Clear  
Wind Chill: 19°   Ceiling: Unl
Heat Index: 19°   Visibility: 10mi
Dew Point: 13°   Wind: 6mph
Humidity: 68%   Direction: 40°NE
Pressure: 30.09"   Gusts: NA
Location:  29.8812°N, 98.2387°W
Report Text: KBAZ 221351Z 04005KT 10SM CLR 19/13 A3009 RMK AO2 SLP184 T01940133
Loading
Personal Weather Stations






























Interactive Weather Map
Tropical Storm Tracking
New forecast layout! Learn more

10-Day Weather Forecast

Advertisements
Track Severe Weather on mobile